DGAA/ACC METAR and TAF weather

Enter ICAO airport designator
Station Type Date Time Source
DGAA METAR 2018/10/19 15:00 UTC NOAA

DGAA 191500Z 18008KT 9999 FEW030CB 30/23 Q1008 NOSIG


Station Type Date Time Source
DGAA Decoded METAR 2018/10/19 15:00 UTC NOAA

Accra, Ghana (DGAA) 05-36N 000-10W 69M
Oct 19, 2018 - 11:00 AM EDT / 2018.10.19 1500 UTC
Wind: from the S (180 degrees) at 9 MPH (8 KT):0
Visibility: greater than 7 mile(s):0
Sky conditions: mostly clear
Weather: Cumulonimbus clouds observed
Temperature: 86 F (30 C)
Heat index: 93.4 F (34.1 C):1
Dew Point: 73 F (23 C)
Relative Humidity: 66%
Pressure (altimeter): 29.77 in. Hg (1008 hPa)
ob: DGAA 191500Z 18008KT 9999 FEW030CB 30/23 Q1008 NOSIG
cycle: 15

Station Type Date Time Source
DGAA TAF 2018/10/19 12:21 UTC NOAA

TAF DGAA 191100Z 1912/2018 19010KT 9999 BKN025 PROB30
TEMPO 1915/1919 TS BKN013 FEW020CB
BECMG 2000/2002 27008KT SCT011
FM201200 18015KT 9999 FEW025


Example: see airport list